createdAt,value
2023-05-15T00:00:32.533Z,100.00
2023-05-15T00:09:22.826Z,100.00
2023-05-15T00:11:49.301Z,100.00
2023-05-15T00:14:15.762Z,100.00
2023-05-15T00:16:42.184Z,100.00
2023-05-15T00:19:08.877Z,100.00
2023-05-15T00:21:35.419Z,100.00
2023-05-15T00:24:01.744Z,100.00
2023-05-15T00:26:28.122Z,100.00
2023-05-15T00:28:54.620Z,100.00
2023-05-15T00:31:20.975Z,100.00
2023-05-15T00:33:47.685Z,100.00
2023-05-15T00:36:14.044Z,100.00
2023-05-15T00:38:40.489Z,100.00
2023-05-15T00:41:07.736Z,100.00
2023-05-15T00:43:34.866Z,100.00
2023-05-15T00:46:02.273Z,100.00
2023-05-15T00:48:29.194Z,100.00
2023-05-15T00:50:57.677Z,100.00
2023-05-15T00:53:24.424Z,100.00
2023-05-15T00:55:52.294Z,100.00
2023-05-15T00:58:21.351Z,100.00
2023-05-15T01:00:49.604Z,100.00
2023-05-15T01:03:16.882Z,100.00
2023-05-15T01:05:44.062Z,100.00
2023-05-15T01:08:26.431Z,100.00
2023-05-15T01:10:53.674Z,100.00
2023-05-15T01:13:21.863Z,100.00
2023-05-15T01:15:49.175Z,100.00
2023-05-15T01:18:15.886Z,100.00
2023-05-15T01:20:54.195Z,100.00
2023-05-15T01:23:45.660Z,100.00
2023-05-15T01:26:32.441Z,100.00
2023-05-15T01:29:03.313Z,100.00
2023-05-15T01:31:32.705Z,100.00
2023-05-15T01:34:03.991Z,100.00
2023-05-15T01:36:37.598Z,100.00
2023-05-15T01:39:05.387Z,100.00
2023-05-15T01:41:36.870Z,100.00
2023-05-15T01:44:08.076Z,100.00
2023-05-15T01:46:42.159Z,100.00
2023-05-15T01:49:12.157Z,100.00
2023-05-15T01:51:39.231Z,100.00
2023-05-15T01:54:08.774Z,100.00
2023-05-15T01:56:36.338Z,100.00
2023-05-15T01:59:05.248Z,100.00
2023-05-15T02:01:32.888Z,100.00
2023-05-15T02:04:01.480Z,100.00
2023-05-15T02:06:29.624Z,100.00
2023-05-15T02:08:58.184Z,100.00
2023-05-15T02:11:24.664Z,100.00
2023-05-15T02:13:51.786Z,100.00
2023-05-15T02:16:18.195Z,100.00
2023-05-15T02:18:44.644Z,100.00
2023-05-15T02:21:11.435Z,100.00
2023-05-15T02:23:39.143Z,100.00
2023-05-15T02:26:23.553Z,100.00
2023-05-15T02:29:10.976Z,100.00
2023-05-15T02:32:02.711Z,100.00
2023-05-15T02:34:54.215Z,100.00
2023-05-15T02:37:26.800Z,100.00
2023-05-15T02:39:55.138Z,100.00
2023-05-15T02:42:22.632Z,100.00
2023-05-15T02:44:51.289Z,100.00
2023-05-15T02:47:19.213Z,100.00
2023-05-15T02:49:45.640Z,100.00
2023-05-15T02:52:11.963Z,100.00
2023-05-15T02:54:38.508Z,100.00
2023-05-15T02:57:05.033Z,100.00
2023-05-15T02:59:31.335Z,100.00
2023-05-15T03:01:57.712Z,100.00
2023-05-15T03:04:24.102Z,100.00
2023-05-15T03:06:50.706Z,100.00
2023-05-15T03:09:17.881Z,100.00
2023-05-15T03:11:44.203Z,100.00
2023-05-15T03:14:10.764Z,100.00
2023-05-15T03:16:38.945Z,100.00
2023-05-15T03:19:05.492Z,100.00
2023-05-15T03:21:31.906Z,100.00
2023-05-15T03:23:58.200Z,100.00
2023-05-15T03:26:24.533Z,100.00
2023-05-15T03:28:50.941Z,100.00
2023-05-15T03:31:17.403Z,100.00
2023-05-15T03:33:45.577Z,100.00
2023-05-15T03:36:11.912Z,100.00
2023-05-15T03:38:38.313Z,100.00
2023-05-15T03:41:04.638Z,100.00
2023-05-15T03:43:30.949Z,100.00
2023-05-15T03:45:57.422Z,100.00
2023-05-15T03:48:23.860Z,100.00
2023-05-15T03:50:51.104Z,100.00
2023-05-15T03:53:17.533Z,100.00
2023-05-15T03:55:43.925Z,100.00
2023-05-15T03:58:10.319Z,100.00
2023-05-15T04:00:36.732Z,100.00
2023-05-15T04:03:03.187Z,100.00
2023-05-15T04:05:29.706Z,100.00
2023-05-15T04:07:56.045Z,100.00
2023-05-15T04:10:22.464Z,100.00
2023-05-15T04:12:48.956Z,100.00
2023-05-15T04:15:23.262Z,100.00
2023-05-15T04:17:53.516Z,100.00
2023-05-15T04:20:22.740Z,100.00
2023-05-15T04:22:49.569Z,100.00
2023-05-15T04:25:16.539Z,100.00
2023-05-15T04:27:44.315Z,100.00
2023-05-15T04:30:11.479Z,100.00
2023-05-15T04:32:38.596Z,100.00
2023-05-15T04:35:09.096Z,100.00
2023-05-15T04:37:42.732Z,100.00
2023-05-15T04:40:09.926Z,100.00
2023-05-15T04:42:38.835Z,100.00
2023-05-15T04:45:07.304Z,100.00
2023-05-15T04:47:33.993Z,100.00
2023-05-15T04:50:00.373Z,100.00
2023-05-15T04:52:26.798Z,100.00
2023-05-15T04:54:55.483Z,100.00
2023-05-15T04:57:22.221Z,100.00
2023-05-15T04:59:48.529Z,100.00
2023-05-15T05:02:14.916Z,100.00
2023-05-15T05:04:43.542Z,100.00
2023-05-15T05:07:09.833Z,100.00
2023-05-15T05:09:36.172Z,100.00
2023-05-15T05:12:02.571Z,100.00
2023-05-15T05:14:28.893Z,100.00
2023-05-15T05:16:55.269Z,100.00
2023-05-15T05:19:21.726Z,100.00
2023-05-15T05:21:48.087Z,100.00
2023-05-15T05:24:14.451Z,100.00
2023-05-15T05:26:43.710Z,100.00
2023-05-15T05:29:10.682Z,100.00
2023-05-15T05:31:37.091Z,100.00
2023-05-15T05:34:03.508Z,100.00
2023-05-15T05:36:29.800Z,100.00
2023-05-15T05:38:56.264Z,100.00
2023-05-15T05:41:22.613Z,100.00
2023-05-15T05:43:48.958Z,100.00
2023-05-15T05:46:15.281Z,100.00
2023-05-15T05:48:41.678Z,100.00
2023-05-15T05:51:08.044Z,100.00
2023-05-15T05:53:34.413Z,100.00
2023-05-15T05:56:01.180Z,100.00
2023-05-15T05:58:27.543Z,100.00
2023-05-15T06:00:54.611Z,100.00
2023-05-15T06:03:21.332Z,100.00
2023-05-15T06:05:48.531Z,100.00
2023-05-15T06:08:15.188Z,100.00
2023-05-15T06:10:42.392Z,100.00
2023-05-15T06:13:08.838Z,100.00
2023-05-15T06:15:35.262Z,100.00
2023-05-15T06:18:01.652Z,100.00
2023-05-15T06:20:28.115Z,100.00
2023-05-15T06:22:54.453Z,100.00
2023-05-15T06:25:20.989Z,100.00
2023-05-15T06:27:47.619Z,100.00
2023-05-15T06:30:14.275Z,100.00
2023-05-15T06:32:41.754Z,100.00
2023-05-15T06:35:09.938Z,100.00
2023-05-15T06:37:36.637Z,100.00
2023-05-15T06:40:04.454Z,100.00
2023-05-15T06:42:31.177Z,100.00
2023-05-15T06:44:57.528Z,100.00
2023-05-15T06:47:23.904Z,100.00
2023-05-15T06:49:50.384Z,100.00
2023-05-15T06:52:16.757Z,100.00
2023-05-15T06:54:43.213Z,100.00
2023-05-15T06:57:09.721Z,98.24
2023-05-15T06:59:36.169Z,97.30
2023-05-15T07:02:03.410Z,97.96
2023-05-15T07:07:21.717Z,92.02
2023-05-15T07:09:50.153Z,95.39
2023-05-15T07:12:16.585Z,91.35
2023-05-15T07:14:42.956Z,92.22
2023-05-15T07:17:09.539Z,91.97
2023-05-15T07:19:35.950Z,86.20
2023-05-15T07:22:08.563Z,88.86
2023-05-15T07:24:34.914Z,88.30
2023-05-15T07:27:01.302Z,87.88
2023-05-15T07:29:27.608Z,82.76
2023-05-15T07:31:53.981Z,83.68
2023-05-15T07:34:20.742Z,82.81
2023-05-15T07:36:47.135Z,85.35
2023-05-15T07:39:13.795Z,81.80
2023-05-15T07:41:40.455Z,84.29
2023-05-15T07:44:06.889Z,80.58
2023-05-15T07:46:34.177Z,79.67
2023-05-15T07:49:00.684Z,80.96
2023-05-15T07:51:27.038Z,78.31
2023-05-15T07:53:53.416Z,80.99
2023-05-15T07:56:19.937Z,82.82
2023-05-15T07:58:46.463Z,83.71
2023-05-15T08:01:12.898Z,82.60
2023-05-15T08:03:39.341Z,81.91
2023-05-15T08:06:07.218Z,79.82
2023-05-15T08:08:33.990Z,78.30
2023-05-15T08:11:00.351Z,81.75
2023-05-15T08:13:26.752Z,80.06
2023-05-15T08:15:53.158Z,79.06
2023-05-15T08:18:19.565Z,80.42
2023-05-15T08:20:46.387Z,77.88
2023-05-15T08:23:15.537Z,78.64
2023-05-15T08:25:41.946Z,76.78
2023-05-15T08:28:08.329Z,76.34
2023-05-15T08:30:35.847Z,76.77
2023-05-15T08:33:02.230Z,76.67
2023-05-15T08:35:28.741Z,77.09
2023-05-15T08:37:55.231Z,79.00
2023-05-15T08:40:31.110Z,73.32
2023-05-15T08:43:11.285Z,74.03
2023-05-15T08:45:37.714Z,73.09
2023-05-15T08:48:10.536Z,74.24
2023-05-15T08:50:38.886Z,74.75
2023-05-15T08:53:05.505Z,71.38
2023-05-15T08:55:32.260Z,71.50
2023-05-15T08:57:58.835Z,74.79
2023-05-15T09:00:28.890Z,70.90
2023-05-15T09:02:55.310Z,69.53
2023-05-15T09:05:21.762Z,71.47
2023-05-15T09:07:49.164Z,72.51
2023-05-15T09:10:16.259Z,72.10
2023-05-15T09:12:44.409Z,69.83
2023-05-15T09:15:13.512Z,68.77
2023-05-15T09:17:40.816Z,69.42
2023-05-15T09:20:08.459Z,65.19
2023-05-15T09:22:36.136Z,67.33
2023-05-15T09:25:04.034Z,67.04
2023-05-15T09:27:31.030Z,63.12
2023-05-15T09:30:08.467Z,66.80
2023-05-15T09:32:37.209Z,66.37
2023-05-15T09:35:04.468Z,63.71
2023-05-15T09:37:33.034Z,62.28
2023-05-15T09:40:10.860Z,62.06
2023-05-15T09:42:37.721Z,64.36
2023-05-15T09:45:05.073Z,61.12
2023-05-15T09:47:31.647Z,65.57
2023-05-15T09:49:58.231Z,64.00
2023-05-15T09:52:24.634Z,63.62
2023-05-15T09:54:51.848Z,63.10
2023-05-15T09:57:23.188Z,63.49
2023-05-15T09:59:50.027Z,63.34
2023-05-15T10:02:35.308Z,63.65
2023-05-15T10:05:01.695Z,62.90
2023-05-15T10:07:29.798Z,61.38
2023-05-15T10:09:56.448Z,62.19
2023-05-15T10:12:23.812Z,63.98
2023-05-15T10:14:51.539Z,63.09
2023-05-15T10:17:20.719Z,62.21
2023-05-15T10:19:57.828Z,60.90
2023-05-15T10:22:29.208Z,62.64
2023-05-15T10:25:03.284Z,61.90
2023-05-15T10:27:31.009Z,62.29
2023-05-15T10:29:58.540Z,65.09
2023-05-15T10:32:26.018Z,61.20
2023-05-15T10:34:54.159Z,59.27
2023-05-15T10:37:21.710Z,60.15
2023-05-15T10:39:49.156Z,58.01
2023-05-15T10:42:16.836Z,60.39
2023-05-15T10:44:43.316Z,58.51
2023-05-15T10:47:10.181Z,57.22
2023-05-15T10:49:36.542Z,58.09
2023-05-15T10:52:03.295Z,60.68
2023-05-15T10:54:30.425Z,57.95
2023-05-15T10:56:57.149Z,54.73
2023-05-15T10:59:31.989Z,57.27
2023-05-15T11:02:23.222Z,57.10
2023-05-15T11:05:00.473Z,60.25
2023-05-15T11:07:28.571Z,58.33
2023-05-15T11:09:56.151Z,55.11
2023-05-15T11:12:23.529Z,57.83
2023-05-15T11:14:55.963Z,55.80
2023-05-15T11:17:26.251Z,51.60
2023-05-15T11:19:52.545Z,53.86
2023-05-15T11:22:25.636Z,54.90
2023-05-15T11:25:04.638Z,54.96
2023-05-15T11:27:33.533Z,56.19
2023-05-15T11:30:09.050Z,54.51
2023-05-15T11:32:48.114Z,56.44
2023-05-15T11:35:37.217Z,56.42
2023-05-15T11:38:14.926Z,54.93
2023-05-15T11:40:48.652Z,55.54
2023-05-15T11:43:29.367Z,54.97
2023-05-15T11:46:02.776Z,54.81
2023-05-15T11:48:34.423Z,55.80
2023-05-15T11:51:01.951Z,54.55
2023-05-15T11:53:33.376Z,51.18
2023-05-15T11:55:59.899Z,47.84
2023-05-15T11:58:26.802Z,47.48
2023-05-15T12:00:53.985Z,49.08
2023-05-15T12:03:25.654Z,49.46
2023-05-15T12:05:59.665Z,47.52
2023-05-15T12:08:39.945Z,49.10
2023-05-15T12:11:06.567Z,50.28
2023-05-15T12:13:34.204Z,47.89
2023-05-15T12:16:03.243Z,48.93
2023-05-15T12:18:31.860Z,48.81
2023-05-15T12:20:58.326Z,47.30
2023-05-15T12:23:26.733Z,44.71
2023-05-15T12:25:58.526Z,48.01
2023-05-15T12:28:26.468Z,49.35
2023-05-15T12:30:53.785Z,48.71
2023-05-15T12:33:20.491Z,50.19
2023-05-15T12:35:53.498Z,47.80
2023-05-15T12:38:20.525Z,51.61
2023-05-15T12:40:46.859Z,52.34
2023-05-15T12:43:14.035Z,54.06
2023-05-15T12:45:41.563Z,51.05
2023-05-15T12:48:08.129Z,50.46
2023-05-15T12:50:35.745Z,51.01
2023-05-15T12:53:04.614Z,50.43
2023-05-15T12:55:36.309Z,50.03
2023-05-15T12:58:09.330Z,50.52
2023-05-15T13:00:37.677Z,51.18
2023-05-15T13:03:05.218Z,51.54
2023-05-15T13:05:33.281Z,50.39
2023-05-15T13:08:00.686Z,50.68
2023-05-15T13:10:27.312Z,49.57
2023-05-15T13:12:55.667Z,48.43
2023-05-15T13:15:25.394Z,51.60
2023-05-15T13:18:07.166Z,51.92
2023-05-15T13:20:35.934Z,51.61
2023-05-15T13:23:02.700Z,52.45
2023-05-15T13:25:31.902Z,47.54
2023-05-15T13:28:00.836Z,46.27
2023-05-15T13:30:28.674Z,44.97
2023-05-15T13:32:55.924Z,46.33
2023-05-15T13:35:22.965Z,46.40
2023-05-15T13:37:49.872Z,46.87
2023-05-15T13:40:16.483Z,47.94
2023-05-15T13:42:43.879Z,47.20
2023-05-15T13:45:12.078Z,46.34
2023-05-15T13:47:41.868Z,47.97
2023-05-15T13:50:09.974Z,46.24
2023-05-15T13:52:37.282Z,47.29
2023-05-15T13:55:04.774Z,48.97
2023-05-15T13:57:32.103Z,47.17
2023-05-15T13:59:59.042Z,46.70
2023-05-15T14:02:28.648Z,46.67
2023-05-15T14:04:55.081Z,49.21
2023-05-15T14:07:22.955Z,49.79
2023-05-15T14:09:50.290Z,49.45
2023-05-15T14:12:16.775Z,49.85
2023-05-15T14:14:45.702Z,46.63
2023-05-15T14:17:12.256Z,48.62
2023-05-15T14:19:38.727Z,49.90
2023-05-15T14:22:05.215Z,50.40
2023-05-15T14:24:31.547Z,50.26
2023-05-15T14:26:57.928Z,51.61
2023-05-15T14:29:24.581Z,51.20
2023-05-15T14:31:50.951Z,51.37
2023-05-15T14:34:18.675Z,51.10
2023-05-15T14:36:46.537Z,49.03
2023-05-15T14:39:15.108Z,49.91
2023-05-15T14:41:42.344Z,49.98
2023-05-15T14:44:08.977Z,49.39
2023-05-15T14:46:38.456Z,48.06
2023-05-15T14:49:05.403Z,47.22
2023-05-15T14:51:31.989Z,47.68
2023-05-15T14:53:58.394Z,49.54
2023-05-15T14:56:25.827Z,50.34
2023-05-15T14:58:53.627Z,50.58
2023-05-15T15:01:20.618Z,51.77
2023-05-15T15:03:47.429Z,53.21
2023-05-15T15:06:13.950Z,52.80
2023-05-15T15:08:40.355Z,54.28
2023-05-15T15:11:07.641Z,54.77
2023-05-15T15:13:34.017Z,54.52
2023-05-15T15:16:00.399Z,54.68
2023-05-15T15:18:26.777Z,55.55
2023-05-15T15:20:53.258Z,55.66
2023-05-15T15:23:19.583Z,55.38
2023-05-15T15:25:45.927Z,55.22
2023-05-15T15:28:12.807Z,53.30
2023-05-15T15:30:39.246Z,53.38
2023-05-15T15:33:05.813Z,53.27
2023-05-15T15:35:32.285Z,55.16
2023-05-15T15:37:58.759Z,54.26
2023-05-15T15:40:25.642Z,54.57
2023-05-15T15:42:53.694Z,55.49
2023-05-15T15:45:20.161Z,53.49
2023-05-15T15:47:46.540Z,54.31
2023-05-15T15:50:12.920Z,53.59
2023-05-15T15:52:39.341Z,54.79
2023-05-15T15:55:06.394Z,54.78
2023-05-15T15:57:33.155Z,55.01
2023-05-15T15:59:59.602Z,52.79
2023-05-15T16:02:26.098Z,52.75
2023-05-15T16:04:52.461Z,52.88
2023-05-15T16:07:18.792Z,52.67
2023-05-15T16:09:46.579Z,54.65
2023-05-15T16:12:14.148Z,52.51
2023-05-15T16:14:40.562Z,52.54
2023-05-15T16:17:07.072Z,52.31
2023-05-15T16:19:33.546Z,50.78
2023-05-15T16:22:00.068Z,50.33
2023-05-15T16:24:26.442Z,51.06
2023-05-15T16:26:53.011Z,52.00
2023-05-15T16:29:19.450Z,52.46
2023-05-15T16:31:46.859Z,51.02
2023-05-15T16:34:13.800Z,52.01
2023-05-15T16:36:40.334Z,51.18
2023-05-15T16:39:06.770Z,52.48
2023-05-15T16:41:33.103Z,52.83
2023-05-15T16:43:59.421Z,53.41
2023-05-15T16:46:25.910Z,53.68
2023-05-15T16:48:52.277Z,53.21
2023-05-15T16:51:18.720Z,53.42
2023-05-15T16:53:45.474Z,54.70
2023-05-15T16:56:13.613Z,55.20
2023-05-15T16:58:41.693Z,55.72
2023-05-15T17:01:08.061Z,57.38
2023-05-15T17:03:34.510Z,54.30
2023-05-15T17:06:01.095Z,56.20
2023-05-15T17:08:27.385Z,55.71
2023-05-15T17:10:53.692Z,55.74
2023-05-15T17:13:20.120Z,55.27
2023-05-15T17:15:47.173Z,56.91
2023-05-15T17:18:13.511Z,56.05
2023-05-15T17:20:39.794Z,55.19
2023-05-15T17:23:06.063Z,56.67
2023-05-15T17:25:32.381Z,57.50
2023-05-15T17:27:58.759Z,57.37
2023-05-15T17:30:25.587Z,55.70
2023-05-15T17:32:52.403Z,55.63
2023-05-15T17:35:18.925Z,55.17
2023-05-15T17:37:45.272Z,55.85
2023-05-15T17:40:11.920Z,55.93
2023-05-15T17:42:38.247Z,56.21
2023-05-15T17:45:06.123Z,56.25
2023-05-15T17:47:32.562Z,56.06
2023-05-15T17:49:58.896Z,55.85
2023-05-15T17:52:25.310Z,56.26
2023-05-15T17:54:51.617Z,55.23
2023-05-15T17:57:17.909Z,53.49
2023-05-15T17:59:44.284Z,53.99
2023-05-15T18:02:10.659Z,54.37
2023-05-15T18:04:36.990Z,54.34
2023-05-15T18:07:03.441Z,55.80
2023-05-15T18:09:29.774Z,56.00
2023-05-15T18:11:56.120Z,56.24
2023-05-15T18:14:22.507Z,56.92
2023-05-15T18:16:48.842Z,57.11
2023-05-15T18:19:15.397Z,57.87
2023-05-15T18:21:41.981Z,58.26
2023-05-15T18:24:08.318Z,58.49
2023-05-15T18:26:34.651Z,58.82
2023-05-15T18:29:01.064Z,59.32
2023-05-15T18:31:27.435Z,61.49
2023-05-15T18:33:53.762Z,63.16
2023-05-15T18:36:20.069Z,65.11
2023-05-15T18:38:46.491Z,65.99
2023-05-15T18:41:12.786Z,65.38
2023-05-15T18:43:39.100Z,66.37
2023-05-15T18:46:05.661Z,67.25
2023-05-15T18:48:32.045Z,66.53
2023-05-15T18:50:58.415Z,66.03
2023-05-15T18:53:25.405Z,65.59
2023-05-15T18:55:51.825Z,66.47
2023-05-15T18:58:18.140Z,65.60
2023-05-15T19:00:44.539Z,66.06
2023-05-15T19:03:11.362Z,66.42
2023-05-15T19:05:37.873Z,65.51
2023-05-15T19:08:04.288Z,66.73
2023-05-15T19:10:30.818Z,67.08
2023-05-15T19:12:57.791Z,67.35
2023-05-15T19:15:24.834Z,68.07
2023-05-15T19:17:51.745Z,68.40
2023-05-15T19:20:18.316Z,68.28
2023-05-15T19:22:44.838Z,69.78
2023-05-15T19:25:11.511Z,68.65
2023-05-15T19:27:37.852Z,68.85
2023-05-15T19:30:06.953Z,69.98
2023-05-15T19:32:34.257Z,69.22
2023-05-15T19:35:00.779Z,69.62
2023-05-15T19:37:27.110Z,69.26
2023-05-15T19:39:53.478Z,69.74
2023-05-15T19:42:19.796Z,72.28
2023-05-15T19:44:46.163Z,71.16
2023-05-15T19:47:12.560Z,71.46
2023-05-15T19:49:39.094Z,71.33
2023-05-15T19:52:05.620Z,70.84
2023-05-15T19:54:31.960Z,72.21
2023-05-15T19:57:02.510Z,71.26
2023-05-15T19:59:29.391Z,70.19
2023-05-15T20:01:55.834Z,70.16
2023-05-15T20:04:22.231Z,71.41
2023-05-15T20:06:48.514Z,72.35
2023-05-15T20:09:14.803Z,73.69
2023-05-15T20:11:41.129Z,76.22
2023-05-15T20:14:07.453Z,73.64
2023-05-15T20:16:33.833Z,75.18
2023-05-15T20:19:00.249Z,75.86
2023-05-15T20:21:26.610Z,74.67
2023-05-15T20:23:52.946Z,75.02
2023-05-15T20:26:21.632Z,75.00
2023-05-15T20:28:47.988Z,76.11
2023-05-15T20:31:15.081Z,75.56
2023-05-15T20:33:41.665Z,75.58
2023-05-15T20:36:08.096Z,77.52
2023-05-15T20:38:35.511Z,76.48
2023-05-15T20:41:01.840Z,77.81
2023-05-15T20:43:28.211Z,79.02
2023-05-15T20:45:55.070Z,79.69
2023-05-15T20:48:21.562Z,78.33
2023-05-15T20:50:47.871Z,78.57
2023-05-15T20:53:14.239Z,79.54
2023-05-15T20:55:40.636Z,78.16
2023-05-15T20:58:06.942Z,78.62
2023-05-15T21:00:33.311Z,78.20
2023-05-15T21:02:59.905Z,77.40
2023-05-15T21:05:26.305Z,76.98
2023-05-15T21:07:52.678Z,77.26
2023-05-15T21:10:19.043Z,76.19
2023-05-15T21:12:45.426Z,75.20
2023-05-15T21:15:11.749Z,74.35
2023-05-15T21:17:38.278Z,74.21
2023-05-15T21:20:05.036Z,75.03
2023-05-15T21:22:31.512Z,74.37
2023-05-15T21:24:57.805Z,74.40
2023-05-15T21:27:24.289Z,75.14
2023-05-15T21:29:50.963Z,76.25
2023-05-15T21:32:17.336Z,76.74
2023-05-15T21:34:43.672Z,77.69
2023-05-15T21:37:10.212Z,77.96
2023-05-15T21:39:36.581Z,78.22
2023-05-15T21:42:03.053Z,78.63
2023-05-15T21:44:29.425Z,79.35
2023-05-15T21:46:56.942Z,80.24
2023-05-15T21:49:23.273Z,81.85
2023-05-15T21:51:49.564Z,81.43
2023-05-15T21:54:15.969Z,82.06
2023-05-15T21:56:42.305Z,81.98
2023-05-15T21:59:10.337Z,82.90
2023-05-15T22:01:36.722Z,84.00
2023-05-15T22:04:03.204Z,83.43
2023-05-15T22:06:29.676Z,83.52
2023-05-15T22:08:57.012Z,84.33
2023-05-15T22:11:23.471Z,84.06
2023-05-15T22:13:49.762Z,85.07
2023-05-15T22:16:16.234Z,85.03
2023-05-15T22:18:44.830Z,86.59
2023-05-15T22:21:11.355Z,86.15
2023-05-15T22:23:37.712Z,88.37
2023-05-15T22:26:04.242Z,90.04
2023-05-15T22:28:30.611Z,90.11
2023-05-15T22:30:57.003Z,88.41
2023-05-15T22:33:24.323Z,90.08
2023-05-15T22:35:53.968Z,89.23
2023-05-15T22:38:20.865Z,88.83
2023-05-15T22:40:53.605Z,89.70
2023-05-15T22:43:21.350Z,90.82
2023-05-15T22:45:47.802Z,91.85
2023-05-15T22:48:15.259Z,91.53
2023-05-15T22:50:41.729Z,92.08
2023-05-15T22:53:08.023Z,91.91
2023-05-15T22:55:34.383Z,92.10
2023-05-15T22:58:00.792Z,91.22
2023-05-15T23:00:27.275Z,91.31
2023-05-15T23:02:55.316Z,92.52
2023-05-15T23:05:21.972Z,93.70
2023-05-15T23:07:48.640Z,93.82
2023-05-15T23:10:15.032Z,94.13
2023-05-15T23:12:41.344Z,94.46
2023-05-15T23:15:10.219Z,95.27
2023-05-15T23:17:36.764Z,95.77
2023-05-15T23:20:05.114Z,95.72
2023-05-15T23:22:31.433Z,96.32
2023-05-15T23:24:57.770Z,95.83
2023-05-15T23:27:24.145Z,97.35
2023-05-15T23:29:50.529Z,97.70
2023-05-15T23:32:16.860Z,98.78
2023-05-15T23:34:43.175Z,98.52
2023-05-15T23:37:09.489Z,97.94
2023-05-15T23:39:36.133Z,97.48
2023-05-15T23:42:02.522Z,98.29
2023-05-15T23:44:28.845Z,99.79
2023-05-15T23:46:55.266Z,99.37
2023-05-15T23:49:21.564Z,100.00
2023-05-15T23:51:47.919Z,100.00
2023-05-15T23:54:14.299Z,100.00
2023-05-15T23:56:41.046Z,100.00
2023-05-15T23:59:07.421Z,100.00
